Time;durP1;ratioP1;P1;durP2;ratioP2;P2;SDS_P1;SDS_P2;PMS_P1;PMS_P2;Temp;Humidity;BMP_temperature;BMP_pressure;BME280_temperature;BME280_humidity;BME280_pressure;Samples;Min_cycle;Max_cycle;Signal;HPM_P1;HPM_P2
2020/12/04 00:00:09;;;;;;;25.13;12.13;;;3.40;82.70;;;;;;5014868;28;20033;-79
2020/12/04 00:02:34;;;;;;;23.90;11.95;;;3.40;84.20;;;;;;5018129;28;20038;-79
2020/12/04 00:05:00;;;;;;;24.90;11.73;;;3.40;82.60;;;;;;5014180;28;20579;-81
2020/12/04 00:07:25;;;;;;;24.80;11.80;;;3.40;81.80;;;;;;5019789;28;20034;-81
2020/12/04 00:09:51;;;;;;;25.30;12.32;;;3.40;83.40;;;;;;5017350;28;20422;-80
2020/12/04 00:12:16;;;;;;;25.50;11.00;;;3.40;83.00;;;;;;5018194;28;20037;-80
2020/12/04 00:14:42;;;;;;;23.48;11.75;;;3.40;84.10;;;;;;5035648;28;20050;-81
2020/12/04 00:17:07;;;;;;;28.05;11.82;;;3.40;83.50;;;;;;5015664;28;20050;-81
2020/12/04 00:19:33;;;;;;;22.35;11.13;;;3.40;84.10;;;;;;5020809;28;20042;-80
2020/12/04 00:21:59;;;;;;;25.90;11.70;;;3.40;84.10;;;;;;5021135;28;20049;-79
2020/12/04 00:24:24;;;;;;;28.08;11.63;;;3.40;83.20;;;;;;5018321;28;21026;-81
2020/12/04 00:26:50;;;;;;;25.73;11.95;;;3.40;85.90;;;;;;5019203;28;20038;-79
2020/12/04 00:29:15;;;;;;;28.27;12.80;;;3.40;84.30;;;;;;5020274;28;20041;-81
2020/12/04 00:31:41;;;;;;;24.25;11.10;;;3.40;85.20;;;;;;5022493;28;20050;-81
2020/12/04 00:34:08;;;;;;;26.17;12.10;;;3.30;85.80;;;;;;5030979;28;20057;-83
2020/12/04 00:36:35;;;;;;;30.35;12.82;;;3.30;85.00;;;;;;5020883;28;20064;-82
2020/12/04 00:39:00;;;;;;;24.38;11.00;;;3.40;84.50;;;;;;5018808;28;20414;-80
2020/12/04 00:41:27;;;;;;;24.48;11.23;;;3.40;84.40;;;;;;5028219;28;20045;-80
2020/12/04 00:43:53;;;;;;;25.40;12.27;;;3.30;83.90;;;;;;5009112;28;20124;-79
2020/12/04 00:46:18;;;;;;;21.73;11.18;;;3.30;83.30;;;;;;5005011;28;20152;-80
2020/12/04 00:48:44;;;;;;;23.98;11.52;;;3.30;83.40;;;;;;5020307;28;20077;-79
2020/12/04 00:51:10;;;;;;;23.33;11.30;;;3.30;84.00;;;;;;5019039;28;20108;-80
2020/12/04 00:53:36;;;;;;;22.75;11.07;;;3.40;83.20;;;;;;5020046;28;20818;-81
2020/12/04 00:56:02;;;;;;;25.35;11.70;;;3.40;82.00;;;;;;5018294;28;20072;-81
2020/12/04 00:58:27;;;;;;;25.98;11.38;;;3.30;81.90;;;;;;5005425;28;20038;-80
2020/12/04 01:00:53;;;;;;;25.58;12.02;;;3.40;82.00;;;;;;5019366;28;20048;-81
2020/12/04 01:03:18;;;;;;;27.45;12.38;;;3.30;82.30;;;;;;5008044;28;20038;-80
2020/12/04 01:05:44;;;;;;;32.38;12.55;;;3.30;82.60;;;;;;5020483;28;20417;-81
2020/12/04 01:08:10;;;;;;;24.83;10.43;;;3.40;82.00;;;;;;5015265;28;20057;-79
2020/12/04 01:10:35;;;;;;;23.58;11.10;;;3.40;81.10;;;;;;5031169;28;20072;-79
2020/12/04 01:13:01;;;;;;;26.83;12.88;;;3.40;80.50;;;;;;5016925;28;20042;-80
2020/12/04 01:15:26;;;;;;;23.15;10.73;;;3.50;80.00;;;;;;5003798;28;20052;-80
2020/12/04 01:17:52;;;;;;;24.65;12.20;;;3.40;79.60;;;;;;5015260;28;20041;-80
2020/12/04 01:20:17;;;;;;;22.35;10.95;;;3.40;79.60;;;;;;5003389;28;20113;-79
2020/12/04 01:22:43;;;;;;;29.00;13.57;;;3.40;79.70;;;;;;5007664;28;20564;-79
2020/12/04 01:25:09;;;;;;;26.75;11.90;;;3.30;79.50;;;;;;5028958;28;20040;-80
2020/12/04 01:27:34;;;;;;;24.10;11.23;;;3.40;79.80;;;;;;5024602;28;20128;-79
2020/12/04 01:30:00;;;;;;;29.55;11.73;;;3.40;79.70;;;;;;5012439;28;20054;-79
2020/12/04 01:32:25;;;;;;;26.08;11.57;;;3.30;79.80;;;;;;5003675;28;20038;-79
2020/12/04 01:34:51;;;;;;;29.25;12.45;;;3.30;80.10;;;;;;5006965;28;20046;-79
2020/12/04 01:37:16;;;;;;;25.55;12.07;;;3.30;79.80;;;;;;5014982;28;20018;-83
2020/12/04 01:39:42;;;;;;;22.20;11.25;;;3.30;80.00;;;;;;5014117;28;20056;-80
2020/12/04 01:42:07;;;;;;;27.20;12.40;;;3.30;80.20;;;;;;5016848;28;20049;-82
2020/12/04 01:44:33;;;;;;;26.42;12.20;;;3.30;80.00;;;;;;5007283;28;20034;-80
2020/12/04 01:46:58;;;;;;;25.30;11.30;;;3.30;80.40;;;;;;5010983;28;20041;-80
2020/12/04 01:49:24;;;;;;;27.40;11.25;;;3.30;80.40;;;;;;5012619;28;20101;-80
2020/12/04 01:51:51;;;;;;;28.00;12.38;;;3.30;80.80;;;;;;5000099;28;20041;-80
2020/12/04 01:54:18;;;;;;;27.75;11.98;;;3.30;80.60;;;;;;5024101;28;20064;-82
2020/12/04 01:56:46;;;;;;;25.58;11.23;;;3.30;80.40;;;;;;5016296;28;20041;-80
2020/12/04 01:59:12;;;;;;;24.67;11.00;;;3.30;80.20;;;;;;5019389;28;20042;-81
2020/12/04 02:01:42;;;;;;;24.42;12.05;;;3.30;80.60;;;;;;5011337;28;20042;-82
2020/12/04 02:04:10;;;;;;;24.88;11.90;;;3.30;80.40;;;;;;5014792;28;20090;-79
2020/12/04 02:06:42;;;;;;;26.98;12.18;;;3.30;80.60;;;;;;5024238;28;20042;-81
2020/12/04 02:09:17;;;;;;;24.50;11.40;;;3.30;80.40;;;;;;5030334;28;20049;-81
2020/12/04 02:11:44;;;;;;;27.08;12.45;;;3.30;81.40;;;;;;5017064;28;20045;-80
2020/12/04 02:14:11;;;;;;;26.63;12.18;;;3.30;81.10;;;;;;5015495;28;20057;-82
2020/12/04 02:16:42;;;;;;;26.17;11.23;;;3.30;81.20;;;;;;5013702;28;20045;-81
2020/12/04 02:19:08;;;;;;;30.00;12.48;;;3.30;81.70;;;;;;5016890;28;20033;-81
2020/12/04 02:21:34;;;;;;;27.63;12.80;;;3.30;80.90;;;;;;5022878;28;20042;-80
2020/12/04 02:24:00;;;;;;;31.02;12.52;;;3.40;80.40;;;;;;5019391;28;20281;-78
2020/12/04 02:26:27;;;;;;;28.05;11.48;;;3.40;80.50;;;;;;5012332;28;20102;-80
2020/12/04 02:28:53;;;;;;;24.80;11.68;;;3.40;81.10;;;;;;5005857;28;20049;-80
2020/12/04 02:31:21;;;;;;;28.42;12.48;;;3.30;81.10;;;;;;5018406;28;20042;-81
2020/12/04 02:33:47;;;;;;;24.85;11.68;;;3.30;81.50;;;;;;5020746;28;20046;-80
2020/12/04 02:36:13;;;;;;;23.63;11.45;;;3.30;82.20;;;;;;5016749;28;20065;-83
2020/12/04 02:38:39;;;;;;;32.53;12.55;;;3.30;81.50;;;;;;5021107;28;20034;-82
2020/12/04 02:41:09;;;;;;;28.67;12.77;;;3.30;80.10;;;;;;5019324;28;20044;-80
2020/12/04 02:43:35;;;;;;;26.13;12.15;;;3.30;80.90;;;;;;5018292;28;20045;-81
2020/12/04 02:46:01;;;;;;;31.05;12.45;;;3.30;81.00;;;;;;5015950;28;20053;-82
2020/12/04 02:48:27;;;;;;;27.23;12.82;;;3.30;80.80;;;;;;5016913;28;20503;-83
2020/12/04 02:50:53;;;;;;;26.60;12.13;;;3.30;80.30;;;;;;5019128;28;20038;-80
2020/12/04 02:53:18;;;;;;;31.77;13.23;;;3.30;80.80;;;;;;5009441;28;20803;-79
2020/12/04 02:55:44;;;;;;;24.95;11.82;;;3.30;80.40;;;;;;5002017;28;20453;-82
2020/12/04 02:58:09;;;;;;;29.95;13.13;;;3.20;80.70;;;;;;5002555;28;20034;-80
2020/12/04 03:00:35;;;;;;;30.55;13.02;;;3.20;81.00;;;;;;5007130;28;20394;-81
2020/12/04 03:03:00;;;;;;;26.52;12.60;;;3.30;81.20;;;;;;5001534;28;20656;-81
2020/12/04 03:05:26;;;;;;;26.15;12.52;;;3.30;81.30;;;;;;5004740;28;20146;-80
2020/12/04 03:07:51;;;;;;;29.00;12.30;;;3.30;81.60;;;;;;5004739;28;20073;-80
2020/12/04 03:10:17;;;;;;;25.25;12.55;;;3.30;81.60;;;;;;5004138;28;20102;-79
2020/12/04 03:12:43;;;;;;;27.58;13.02;;;3.20;81.70;;;;;;5002981;28;21566;-79
2020/12/04 03:15:09;;;;;;;27.55;12.95;;;3.20;82.20;;;;;;5006857;28;20037;-79
2020/12/04 03:17:35;;;;;;;25.63;13.15;;;3.20;81.40;;;;;;5000685;28;20517;-79
2020/12/04 03:20:02;;;;;;;24.60;12.00;;;3.30;81.20;;;;;;5006689;28;20030;-81
2020/12/04 03:22:28;;;;;;;22.95;11.15;;;3.20;81.90;;;;;;5008697;28;20526;-79
2020/12/04 03:24:54;;;;;;;26.58;12.02;;;3.20;82.10;;;;;;5006547;28;20037;-80
2020/12/04 03:27:19;;;;;;;28.25;12.70;;;3.20;81.40;;;;;;5001265;28;20537;-79
2020/12/04 03:29:47;;;;;;;26.92;13.20;;;3.20;81.40;;;;;;5017982;28;20049;-80
2020/12/04 03:32:13;;;;;;;26.50;13.00;;;3.20;82.90;;;;;;5021959;28;20096;-81
2020/12/04 03:34:39;;;;;;;28.63;12.38;;;3.20;83.10;;;;;;5021530;28;20077;-80
2020/12/04 03:37:04;;;;;;;23.73;11.27;;;3.20;82.90;;;;;;5022260;28;20042;-79
2020/12/04 03:39:30;;;;;;;31.67;13.35;;;3.30;82.50;;;;;;5029242;28;20041;-79
2020/12/04 03:41:55;;;;;;;24.42;11.43;;;3.20;82.40;;;;;;5022918;28;20042;-81
2020/12/04 03:44:21;;;;;;;23.25;10.45;;;3.20;81.80;;;;;;5012386;28;20113;-79
2020/12/04 03:46:47;;;;;;;24.48;11.52;;;3.20;82.30;;;;;;5015241;28;20052;-81
2020/12/04 03:49:14;;;;;;;25.30;11.60;;;3.30;82.30;;;;;;5018855;28;20056;-80
2020/12/04 03:51:40;;;;;;;19.60;10.55;;;3.20;83.10;;;;;;5019794;28;20042;-80
2020/12/04 03:54:06;;;;;;;28.70;11.35;;;3.30;82.20;;;;;;5012896;28;20034;-80
2020/12/04 03:56:32;;;;;;;24.15;11.43;;;3.30;81.50;;;;;;5003879;28;20042;-79
2020/12/04 03:58:57;;;;;;;21.90;10.55;;;3.30;82.20;;;;;;5013555;28;20030;-80
2020/12/04 04:01:23;;;;;;;25.02;11.50;;;3.30;82.40;;;;;;5023717;28;20045;-81
2020/12/04 04:03:49;;;;;;;30.23;12.40;;;3.30;82.50;;;;;;5022090;28;20056;-82
2020/12/04 04:06:14;;;;;;;24.23;10.80;;;3.30;81.20;;;;;;5019253;28;20549;-81
2020/12/04 04:08:40;;;;;;;26.52;11.73;;;3.40;82.30;;;;;;5020649;28;20691;-80
2020/12/04 04:11:05;;;;;;;23.85;11.38;;;3.40;82.30;;;;;;5021341;28;20084;-80
2020/12/04 04:13:31;;;;;;;26.85;10.85;;;3.40;82.60;;;;;;5015545;28;20061;-82
2020/12/04 04:15:56;;;;;;;22.38;10.63;;;3.40;82.40;;;;;;5011090;28;20038;-79
2020/12/04 04:18:22;;;;;;;30.33;11.85;;;3.40;82.70;;;;;;5021799;28;20056;-80
2020/12/04 04:20:47;;;;;;;23.08;11.43;;;3.40;81.80;;;;;;5007851;28;20041;-80
2020/12/04 04:23:13;;;;;;;30.50;12.23;;;3.50;81.90;;;;;;5005321;28;20034;-80
2020/12/04 04:25:38;;;;;;;27.58;12.25;;;3.50;81.60;;;;;;5008241;28;20048;-80
2020/12/04 04:28:10;;;;;;;31.02;13.13;;;3.50;81.60;;;;;;5006590;28;20117;-79
2020/12/04 04:30:36;;;;;;;39.28;15.50;;;3.50;81.70;;;;;;5005574;28;20049;-80
2020/12/04 04:33:01;;;;;;;30.08;13.10;;;3.40;81.70;;;;;;5005500;28;20434;-80
2020/12/04 04:35:27;;;;;;;35.33;12.88;;;3.50;81.80;;;;;;5007686;28;20119;-80
2020/12/04 04:37:52;;;;;;;26.10;11.60;;;3.50;82.20;;;;;;5002620;28;20129;-79
2020/12/04 04:40:18;;;;;;;26.73;12.32;;;3.50;82.40;;;;;;5004575;28;20255;-80
2020/12/04 04:42:44;;;;;;;28.88;12.98;;;3.60;82.00;;;;;;5018349;28;20037;-81
2020/12/04 04:45:09;;;;;;;25.40;10.75;;;3.50;81.60;;;;;;5031565;28;20060;-81
2020/12/04 04:47:39;;;;;;;23.45;12.55;;;3.60;81.50;;;;;;5015377;28;20029;-80
2020/12/04 04:50:05;;;;;;;30.75;10.60;;;3.60;81.60;;;;;;5006994;28;20574;-79
2020/12/04 04:52:34;;;;;;;25.48;11.43;;;3.60;81.10;;;;;;5023232;28;20061;-79
2020/12/04 04:54:59;;;;;;;26.40;12.23;;;3.60;81.40;;;;;;5025140;28;20048;-80
2020/12/04 04:57:25;;;;;;;34.53;11.00;;;3.60;81.50;;;;;;5014924;28;20557;-79
2020/12/04 04:59:54;;;;;;;22.52;10.57;;;3.60;82.50;;;;;;5011670;28;20102;-81
2020/12/04 05:02:20;;;;;;;31.85;10.93;;;3.60;82.40;;;;;;5009478;28;20034;-80
2020/12/04 05:04:54;;;;;;;27.27;11.80;;;3.60;82.00;;;;;;5009077;28;20129;-81
2020/12/04 05:07:27;;;;;;;24.13;10.55;;;3.60;82.80;;;;;;5009686;28;20521;-80
2020/12/04 05:10:14;;;;;;;26.42;10.95;;;3.90;83.30;;;;;;5031735;28;20025;-81
2020/12/04 05:12:41;;;;;;;24.88;10.30;;;3.70;82.70;;;;;;5027307;28;20068;-80
2020/12/04 05:15:23;;;;;;;26.42;12.02;;;3.70;82.40;;;;;;5023355;28;20046;-80
2020/12/04 05:17:59;;;;;;;25.52;12.20;;;3.80;81.90;;;;;;5012564;28;20068;-80
2020/12/04 05:20:24;;;;;;;27.88;11.50;;;3.80;81.40;;;;;;5020205;28;20694;-81
2020/12/04 05:22:58;;;;;;;22.15;9.65;;;3.80;81.00;;;;;;5004750;28;20111;-80
2020/12/04 05:25:24;;;;;;;22.47;9.80;;;3.80;81.00;;;;;;5015306;28;20030;-81
2020/12/04 05:27:49;;;;;;;26.75;10.90;;;3.90;81.20;;;;;;5012484;28;20167;-79
2020/12/04 05:30:25;;;;;;;25.30;10.57;;;3.90;81.20;;;;;;5017469;28;20131;-80
2020/12/04 05:33:04;;;;;;;21.35;9.68;;;3.90;81.40;;;;;;5020023;28;20345;-82
2020/12/04 05:35:30;;;;;;;24.85;11.30;;;3.90;81.10;;;;;;5022417;28;20094;-81
2020/12/04 05:38:11;;;;;;;24.95;11.63;;;3.90;81.10;;;;;;5020114;28;20069;-81
2020/12/04 05:40:39;;;;;;;26.55;11.52;;;3.90;82.60;;;;;;5009202;28;20049;-80
2020/12/04 05:43:05;;;;;;;33.42;11.88;;;3.90;82.20;;;;;;5006503;28;20034;-79
2020/12/04 05:45:31;;;;;;;25.50;10.32;;;3.90;81.80;;;;;;5012872;28;20041;-81
2020/12/04 05:47:58;;;;;;;28.90;11.82;;;4.00;81.70;;;;;;5017191;28;20071;-81
2020/12/04 05:50:24;;;;;;;30.20;11.65;;;3.90;81.50;;;;;;5012719;28;20133;-82
2020/12/04 05:52:50;;;;;;;21.92;10.00;;;4.00;81.40;;;;;;5008830;28;20037;-81
2020/12/04 05:55:16;;;;;;;39.10;11.30;;;4.00;81.00;;;;;;5007623;28;20036;-80
2020/12/04 05:57:46;;;;;;;26.27;11.05;;;4.00;81.70;;;;;;5013958;28;20050;-83
2020/12/04 06:00:13;;;;;;;20.83;9.57;;;4.00;82.40;;;;;;5013185;28;20861;-81
2020/12/04 06:02:39;;;;;;;35.00;10.38;;;3.90;82.90;;;;;;5012518;28;20046;-81
2020/12/04 06:05:06;;;;;;;28.30;10.68;;;3.90;82.40;;;;;;5027544;28;20176;-80
2020/12/04 06:07:32;;;;;;;29.40;11.63;;;4.00;82.40;;;;;;5008528;28;20034;-80
2020/12/04 06:09:57;;;;;;;24.35;10.13;;;4.00;82.40;;;;;;5010499;28;20107;-81
2020/12/04 06:12:24;;;;;;;23.17;10.57;;;4.00;83.00;;;;;;5010364;28;20564;-81
2020/12/04 06:14:51;;;;;;;20.20;9.50;;;4.00;82.90;;;;;;5014805;28;20124;-80
2020/12/04 06:17:17;;;;;;;28.05;10.25;;;4.00;82.80;;;;;;5011902;28;20053;-80
2020/12/04 06:19:44;;;;;;;23.15;10.18;;;4.00;83.30;;;;;;5009172;28;21068;-80
2020/12/04 06:22:11;;;;;;;22.83;10.48;;;4.00;83.70;;;;;;5006307;28;20034;-82
2020/12/04 06:24:55;;;;;;;19.70;9.73;;;4.00;83.30;;;;;;5014525;28;20094;-80
2020/12/04 06:27:44;;;;;;;39.73;10.73;;;4.00;82.30;;;;;;5003059;28;20030;-79
2020/12/04 06:30:15;;;;;;;29.13;10.02;;;4.00;82.30;;;;;;5007883;28;20781;-80
2020/12/04 06:32:41;;;;;;;27.20;9.55;;;4.00;83.00;;;;;;5009639;28;20044;-80
2020/12/04 06:35:08;;;;;;;23.85;8.85;;;4.00;82.60;;;;;;5013307;28;20469;-81
2020/12/04 06:37:42;;;;;;;24.42;9.40;;;4.00;82.10;;;;;;5030834;28;20474;-80
2020/12/04 06:40:25;;;;;;;21.15;9.52;;;4.00;83.40;;;;;;5014126;28;20077;-80
2020/12/04 06:43:00;;;;;;;17.55;8.23;;;4.00;83.00;;;;;;5025223;28;20104;-80
2020/12/04 06:45:48;;;;;;;19.88;8.82;;;4.00;82.40;;;;;;5027795;28;20138;-84
2020/12/04 06:48:15;;;;;;;25.40;8.23;;;4.10;80.20;;;;;;5020766;28;20085;-79
2020/12/04 06:50:43;;;;;;;21.20;8.77;;;4.10;80.70;;;;;;5011958;28;20045;-80
2020/12/04 06:53:11;;;;;;;29.77;8.90;;;4.20;78.40;;;;;;5009336;28;20037;-80
2020/12/04 06:55:37;;;;;;;22.98;8.75;;;4.30;76.30;;;;;;5015000;28;20117;-82
2020/12/04 06:58:04;;;;;;;25.77;9.13;;;4.30;76.50;;;;;;5017006;28;20087;-80
2020/12/04 07:00:30;;;;;;;21.55;9.13;;;4.30;76.50;;;;;;5018573;28;20030;-79
2020/12/04 07:02:57;;;;;;;19.95;9.20;;;4.30;76.90;;;;;;5019945;28;20093;-81
2020/12/04 07:05:24;;;;;;;20.10;9.25;;;4.40;77.00;;;;;;5017620;28;20033;-82
2020/12/04 07:07:50;;;;;;;22.30;10.05;;;4.40;76.50;;;;;;5019826;28;20034;-81
2020/12/04 07:10:16;;;;;;;24.17;9.38;;;4.40;75.30;;;;;;5021700;28;20046;-81
2020/12/04 07:12:42;;;;;;;32.55;9.20;;;4.40;75.40;;;;;;5038328;28;20099;-84
2020/12/04 07:15:08;;;;;;;23.67;9.20;;;4.40;75.50;;;;;;5020050;28;20034;-82
2020/12/04 07:17:33;;;;;;;22.52;9.02;;;4.50;75.30;;;;;;5021658;28;20038;-79
2020/12/04 07:19:59;;;;;;;21.27;9.68;;;4.50;75.00;;;;;;5026777;28;20025;-80
2020/12/04 07:22:25;;;;;;;22.77;9.88;;;4.40;75.50;;;;;;5033697;28;20061;-81
2020/12/04 07:24:53;;;;;;;24.52;11.00;;;4.30;75.40;;;;;;5028660;28;20045;-80
2020/12/04 07:27:24;;;;;;;20.92;9.55;;;4.30;75.60;;;;;;5019516;28;20033;-80
2020/12/04 07:29:50;;;;;;;30.48;9.88;;;4.20;75.90;;;;;;5015393;28;20038;-80
2020/12/04 07:32:19;;;;;;;26.70;10.85;;;4.30;76.60;;;;;;5014428;28;20560;-81
2020/12/04 07:34:45;;;;;;;26.52;11.40;;;4.30;76.80;;;;;;5034166;28;20045;-81
2020/12/04 07:37:10;;;;;;;43.65;11.10;;;4.20;75.80;;;;;;5015243;28;20049;-78
2020/12/04 07:39:38;;;;;;;24.92;11.05;;;4.30;76.00;;;;;;5016928;28;20125;-82
2020/12/04 07:42:06;;;;;;;21.63;10.63;;;4.30;75.90;;;;;;5029664;28;20595;-80
2020/12/04 07:44:37;;;;;;;29.30;11.13;;;4.30;76.10;;;;;;5017422;28;20054;-81
2020/12/04 07:47:10;;;;;;;22.30;10.50;;;4.30;76.00;;;;;;5015213;28;20065;-81
2020/12/04 07:49:40;;;;;;;21.83;10.43;;;4.30;76.00;;;;;;5014668;28;20045;-79
2020/12/04 07:52:26;;;;;;;26.52;11.00;;;4.30;76.50;;;;;;5015570;28;20057;-83
2020/12/04 07:54:59;;;;;;;22.30;10.23;;;4.30;76.60;;;;;;5030976;28;20320;-81
2020/12/04 07:57:48;;;;;;;23.30;10.00;;;4.40;76.60;;;;;;5022974;28;20090;-82
2020/12/04 08:00:15;;;;;;;23.10;11.38;;;4.40;76.40;;;;;;4983831;28;20034;-84
2020/12/04 08:02:41;;;;;;;25.08;10.98;;;4.40;76.40;;;;;;5018147;28;20051;-79
2020/12/04 08:05:06;;;;;;;21.70;9.57;;;4.50;76.30;;;;;;4994182;28;20057;-80
2020/12/04 08:07:33;;;;;;;23.45;10.25;;;4.50;75.60;;;;;;4994644;28;20430;-80
2020/12/04 08:09:59;;;;;;;20.05;9.70;;;4.50;75.10;;;;;;4996379;28;20339;-79
2020/12/04 08:12:30;;;;;;;26.70;11.25;;;4.60;75.70;;;;;;5001090;28;20030;-82
2020/12/04 08:14:57;;;;;;;27.23;10.93;;;4.60;75.10;;;;;;5011709;28;20034;-79
2020/12/04 08:17:24;;;;;;;23.48;9.82;;;4.60;74.60;;;;;;5005600;28;20022;-82
2020/12/04 08:19:51;;;;;;;19.77;9.45;;;4.70;75.00;;;;;;4995015;28;20042;-79
2020/12/04 08:22:34;;;;;;;26.65;9.73;;;4.70;75.00;;;;;;4992935;28;20052;-81
2020/12/04 08:25:04;;;;;;;22.13;9.18;;;4.80;74.70;;;;;;4992534;28;20038;-80
2020/12/04 08:27:34;;;;;;;28.10;9.45;;;4.80;75.90;;;;;;4996922;28;20109;-81
2020/12/04 08:30:10;;;;;;;24.50;9.57;;;4.80;76.20;;;;;;4998961;28;20074;-80
2020/12/04 08:32:36;;;;;;;26.30;9.23;;;4.90;75.40;;;;;;4996826;28;20164;-81
2020/12/04 08:35:17;;;;;;;19.70;9.50;;;4.90;73.40;;;;;;4997828;28;20062;-81
2020/12/04 08:37:44;;;;;;;23.55;10.20;;;4.90;73.70;;;;;;4990267;28;20042;-80
2020/12/04 08:40:28;;;;;;;26.77;10.40;;;4.90;73.00;;;;;;4993670;28;20061;-81
2020/12/04 08:43:07;;;;;;;36.63;14.93;;;5.00;73.80;;;;;;4991917;28;20066;-79
2020/12/04 08:45:33;;;;;;;24.85;10.40;;;5.10;73.60;;;;;;4998041;28;20046;-80
2020/12/04 08:48:18;;;;;;;30.80;10.23;;;5.20;73.90;;;;;;4989018;28;20092;-80
2020/12/04 08:50:56;;;;;;;19.58;9.02;;;5.30;72.40;;;;;;4992803;28;20059;-80
2020/12/04 08:53:23;;;;;;;29.88;10.52;;;5.30;72.20;;;;;;5024025;28;20034;-83
2020/12/04 08:55:52;;;;;;;25.55;10.55;;;5.40;72.20;;;;;;5013156;28;20038;-81
2020/12/04 08:58:20;;;;;;;25.85;12.27;;;5.40;72.30;;;;;;5015515;28;20052;-81
2020/12/04 09:00:48;;;;;;;25.95;10.57;;;5.40;72.90;;;;;;5018572;28;20041;-81
2020/12/04 09:03:14;;;;;;;24.00;10.63;;;5.50;72.80;;;;;;5016597;28;20056;-83
2020/12/04 09:05:40;;;;;;;19.35;9.88;;;5.60;71.90;;;;;;5018230;28;20034;-82
2020/12/04 09:08:06;;;;;;;21.30;10.45;;;5.70;71.50;;;;;;5018481;28;20747;-82
2020/12/04 09:10:32;;;;;;;26.10;11.35;;;5.70;71.60;;;;;;5018476;28;20117;-83
2020/12/04 09:12:58;;;;;;;23.13;9.73;;;5.80;71.40;;;;;;5014551;28;20147;-83
2020/12/04 09:15:27;;;;;;;25.60;10.30;;;5.70;70.60;;;;;;5015494;28;20096;-82
2020/12/04 09:17:53;;;;;;;27.20;10.40;;;5.80;70.40;;;;;;5017126;28;20487;-83
2020/12/04 09:20:19;;;;;;;31.48;11.15;;;5.70;70.10;;;;;;5016081;28;20038;-80
2020/12/04 09:22:44;;;;;;;29.92;10.38;;;5.80;70.40;;;;;;5014976;28;20041;-80
2020/12/04 09:25:15;;;;;;;23.65;9.90;;;5.90;70.50;;;;;;5010150;28;20447;-81
2020/12/04 09:27:42;;;;;;;22.52;10.73;;;5.80;69.00;;;;;;5011148;28;20045;-81
2020/12/04 09:30:10;;;;;;;25.08;9.75;;;5.90;69.10;;;;;;5008285;28;20069;-82
2020/12/04 09:32:37;;;;;;;20.88;9.75;;;5.80;69.10;;;;;;5023583;28;20029;-81
2020/12/04 09:35:03;;;;;;;30.13;10.10;;;5.70;69.20;;;;;;5024528;28;20034;-83
2020/12/04 09:37:34;;;;;;;21.10;9.30;;;5.70;70.10;;;;;;5016573;28;20102;-81
2020/12/04 09:40:03;;;;;;;27.23;11.48;;;5.70;70.10;;;;;;5019745;28;20045;-81
2020/12/04 09:42:28;;;;;;;28.52;11.70;;;5.70;69.20;;;;;;5018875;28;20529;-81
2020/12/04 09:44:55;;;;;;;28.27;10.73;;;5.70;68.80;;;;;;5032401;28;20026;-83
2020/12/04 09:47:22;;;;;;;29.08;11.35;;;5.70;69.20;;;;;;5028479;28;20057;-82
2020/12/04 09:49:49;;;;;;;28.13;11.02;;;5.60;68.60;;;;;;5025912;28;20065;-81
2020/12/04 09:52:16;;;;;;;25.92;10.05;;;5.70;69.10;;;;;;5016208;28;20061;-79
2020/12/04 09:54:43;;;;;;;22.50;9.65;;;5.70;69.50;;;;;;5011034;28;20046;-80
2020/12/04 09:57:11;;;;;;;24.42;10.88;;;5.70;69.40;;;;;;5014930;28;20040;-81
2020/12/04 09:59:38;;;;;;;24.55;11.02;;;5.80;69.70;;;;;;5019030;28;20088;-82
2020/12/04 10:02:05;;;;;;;31.90;11.25;;;5.80;69.40;;;;;;5018323;28;20042;-80
2020/12/04 10:04:31;;;;;;;25.38;10.98;;;5.90;69.10;;;;;;5014173;28;20098;-78
2020/12/04 10:06:58;;;;;;;24.48;10.80;;;6.00;69.00;;;;;;5008534;28;20037;-80
2020/12/04 10:09:25;;;;;;;24.95;10.35;;;6.00;69.40;;;;;;5014082;28;20044;-82
2020/12/04 10:11:51;;;;;;;41.72;11.60;;;5.90;68.80;;;;;;5017615;28;20030;-81
2020/12/04 10:14:18;;;;;;;35.63;11.90;;;5.90;69.30;;;;;;5012794;28;20017;-80
2020/12/04 10:16:45;;;;;;;25.08;9.98;;;5.90;69.80;;;;;;5010603;28;20050;-79
2020/12/04 10:19:12;;;;;;;23.70;10.07;;;5.90;69.00;;;;;;5031644;28;20045;-82
2020/12/04 10:21:38;;;;;;;20.70;9.43;;;5.90;68.80;;;;;;5016328;28;20034;-80
2020/12/04 10:24:06;;;;;;;27.88;10.23;;;5.90;69.60;;;;;;5019028;28;20042;-80
2020/12/04 10:26:35;;;;;;;38.83;10.43;;;5.90;69.00;;;;;;5017218;28;20101;-82
2020/12/04 10:29:02;;;;;;;23.58;10.13;;;5.90;68.40;;;;;;5022418;28;20042;-81
2020/12/04 10:31:28;;;;;;;25.98;9.77;;;6.00;68.40;;;;;;5022167;28;20470;-81
2020/12/04 10:33:53;;;;;;;28.70;9.13;;;6.10;67.60;;;;;;5017971;28;20073;-80
2020/12/04 10:36:19;;;;;;;19.80;9.52;;;6.00;67.60;;;;;;5015093;28;20018;-81
2020/12/04 10:38:44;;;;;;;22.77;9.68;;;6.10;67.90;;;;;;5012108;28;20138;-83
2020/12/04 10:41:10;;;;;;;25.00;10.18;;;6.00;68.00;;;;;;5009618;28;20046;-79
2020/12/04 10:43:35;;;;;;;24.63;10.32;;;6.10;69.40;;;;;;5007325;28;20046;-81
2020/12/04 10:46:01;;;;;;;26.23;10.75;;;6.00;68.00;;;;;;5012371;28;20042;-83
2020/12/04 10:48:27;;;;;;;26.40;10.27;;;6.00;67.80;;;;;;5011680;28;20038;-81
2020/12/04 10:50:52;;;;;;;30.45;9.52;;;6.00;68.40;;;;;;5009714;28;20053;-80
2020/12/04 10:53:19;;;;;;;28.88;10.55;;;6.10;68.50;;;;;;5014855;28;20034;-81
2020/12/04 10:55:45;;;;;;;24.08;10.40;;;6.10;68.30;;;;;;5018445;28;20034;-81
2020/12/04 10:58:11;;;;;;;25.92;10.27;;;6.10;68.50;;;;;;5019597;28;20044;-82
2020/12/04 11:00:37;;;;;;;28.38;10.07;;;6.20;68.20;;;;;;5017197;28;20038;-80
2020/12/04 11:03:12;;;;;;;28.25;9.40;;;6.10;68.00;;;;;;5018024;28;20075;-80
2020/12/04 11:05:42;;;;;;;29.30;10.50;;;6.10;69.40;;;;;;5029933;28;20026;-82
2020/12/04 11:08:08;;;;;;;25.90;10.70;;;6.10;69.30;;;;;;5031934;28;20030;-84
2020/12/04 11:10:35;;;;;;;23.33;9.63;;;6.20;69.20;;;;;;5023135;28;20037;-81
2020/12/04 11:13:01;;;;;;;27.23;11.43;;;6.30;68.80;;;;;;5007059;28;20045;-82
2020/12/04 11:15:27;;;;;;;27.15;10.00;;;6.30;69.00;;;;;;5023220;28;20030;-84
2020/12/04 11:17:53;;;;;;;28.48;10.55;;;6.20;69.30;;;;;;5027677;28;20038;-83
2020/12/04 11:20:20;;;;;;;30.23;10.38;;;6.20;68.80;;;;;;5024133;28;21001;-82
2020/12/04 11:22:46;;;;;;;20.77;9.65;;;6.10;67.90;;;;;;5013226;28;20065;-81
2020/12/04 11:25:11;;;;;;;19.48;9.38;;;6.10;68.90;;;;;;5012487;28;20038;-81
2020/12/04 11:27:43;;;;;;;22.45;10.00;;;6.20;69.00;;;;;;5014158;28;20092;-81
2020/12/04 11:30:10;;;;;;;28.02;9.68;;;6.10;69.80;;;;;;5014800;28;20058;-81
2020/12/04 11:32:36;;;;;;;26.50;10.45;;;6.10;69.40;;;;;;5014460;28;20041;-82
2020/12/04 11:35:01;;;;;;;36.45;11.00;;;6.20;69.30;;;;;;5016208;28;20113;-83
2020/12/04 11:37:27;;;;;;;33.50;12.98;;;6.30;69.00;;;;;;5015809;28;20045;-83
2020/12/04 11:39:53;;;;;;;28.52;11.35;;;6.30;69.60;;;;;;5020302;28;20132;-82
2020/12/04 11:42:19;;;;;;;28.27;10.50;;;6.30;70.10;;;;;;5035244;28;20037;-82
2020/12/04 11:44:44;;;;;;;24.38;9.82;;;6.20;69.60;;;;;;5019049;28;20037;-82
2020/12/04 11:47:10;;;;;;;28.42;10.88;;;6.30;71.50;;;;;;5016282;28;20041;-82
2020/12/04 11:49:35;;;;;;;34.38;10.95;;;6.40;69.80;;;;;;5013568;28;20777;-81
2020/12/04 11:52:01;;;;;;;27.02;11.00;;;6.40;69.10;;;;;;5006965;28;20111;-80
2020/12/04 11:54:28;;;;;;;35.05;12.38;;;6.40;69.20;;;;;;5009313;28;20062;-80
2020/12/04 11:56:53;;;;;;;31.98;12.63;;;6.40;69.60;;;;;;5017749;28;20056;-82
2020/12/04 11:59:20;;;;;;;39.53;13.00;;;6.40;70.20;;;;;;5026443;28;20105;-80
2020/12/04 12:01:46;;;;;;;43.15;12.85;;;6.30;69.40;;;;;;5006932;28;20148;-81
2020/12/04 12:04:14;;;;;;;29.33;11.27;;;6.30;69.80;;;;;;5006143;28;20521;-81
2020/12/04 12:06:42;;;;;;;33.80;12.38;;;6.30;69.60;;;;;;5027021;28;20046;-80
2020/12/04 12:09:08;;;;;;;25.48;11.55;;;6.30;69.40;;;;;;5014281;28;20045;-81
2020/12/04 12:11:34;;;;;;;26.67;11.50;;;6.20;69.10;;;;;;5014088;28;20030;-81
2020/12/04 12:13:59;;;;;;;23.58;10.00;;;6.20;67.90;;;;;;5014432;28;20034;-81
2020/12/04 12:16:25;;;;;;;29.73;11.00;;;6.20;68.10;;;;;;5013858;28;20781;-79
2020/12/04 12:18:51;;;;;;;29.08;11.40;;;6.10;68.10;;;;;;5012233;28;20061;-80
2020/12/04 12:21:17;;;;;;;25.75;10.40;;;6.10;68.20;;;;;;5009807;28;20469;-82
2020/12/04 12:23:43;;;;;;;25.90;11.65;;;6.10;68.50;;;;;;5015146;28;20075;-79
2020/12/04 12:26:11;;;;;;;33.75;11.65;;;6.10;68.70;;;;;;5016552;28;20342;-83
2020/12/04 12:28:36;;;;;;;27.73;11.70;;;6.10;69.20;;;;;;5017611;28;20102;-83
2020/12/04 12:31:02;;;;;;;29.70;10.93;;;6.00;68.90;;;;;;5013796;28;20080;-82
2020/12/04 12:33:28;;;;;;;29.27;11.98;;;6.00;69.10;;;;;;5018760;28;20037;-80
2020/12/04 12:35:53;;;;;;;26.35;11.23;;;6.10;69.50;;;;;;5013104;28;20026;-80
2020/12/04 12:38:19;;;;;;;26.35;12.38;;;6.10;69.20;;;;;;5015808;28;20026;-81